createdAt,value
2023-02-26T00:01:32.409Z,-0.40
2023-02-26T00:03:06.953Z,-0.40
2023-02-26T00:04:40.057Z,-0.40
2023-02-26T00:06:13.202Z,-0.40
2023-02-26T00:07:46.309Z,-0.40
2023-02-26T00:09:19.695Z,-0.40
2023-02-26T00:10:54.792Z,-0.40
2023-02-26T00:12:28.654Z,-0.40
2023-02-26T00:14:02.128Z,-0.50
2023-02-26T00:15:35.962Z,-0.50
2023-02-26T00:17:29.334Z,-0.40
2023-02-26T00:19:06.571Z,-0.50
2023-02-26T00:20:40.247Z,-0.50
2023-02-26T00:22:12.971Z,-0.50
2023-02-26T00:23:46.524Z,-0.50
2023-02-26T00:25:19.995Z,-0.50
2023-02-26T00:26:53.475Z,-0.50
2023-02-26T00:28:27.203Z,-0.50
2023-02-26T00:30:00.774Z,-0.50
2023-02-26T00:31:34.174Z,-0.50
2023-02-26T00:33:08.262Z,-0.50
2023-02-26T00:34:43.431Z,-0.50
2023-02-26T00:36:22.876Z,-0.50
2023-02-26T00:38:02.450Z,-0.50
2023-02-26T00:39:44.935Z,-0.50
2023-02-26T00:41:18.489Z,-0.50
2023-02-26T00:42:52.334Z,-0.60
2023-02-26T00:44:25.994Z,-0.60
2023-02-26T00:46:11.845Z,-0.50
2023-02-26T00:47:52.023Z,-0.50
2023-02-26T00:49:33.559Z,-0.50
2023-02-26T00:51:14.490Z,-0.50
2023-02-26T00:52:59.404Z,-0.60
2023-02-26T00:54:33.170Z,-0.60
2023-02-26T00:56:06.368Z,-0.60
2023-02-26T00:57:39.582Z,-0.60
2023-02-26T00:59:12.688Z,-0.60
2023-02-26T01:00:44.859Z,-0.60
2023-02-26T01:02:17.934Z,-0.60
2023-02-26T01:03:50.615Z,-0.60
2023-02-26T01:05:24.316Z,-0.60
2023-02-26T01:06:59.494Z,-0.60
2023-02-26T01:08:37.496Z,-0.60
2023-02-26T01:10:11.560Z,-0.60
2023-02-26T01:11:45.487Z,-0.60
2023-02-26T01:13:18.967Z,-0.60
2023-02-26T01:14:52.987Z,-0.60
2023-02-26T01:16:29.613Z,-0.70
2023-02-26T01:18:06.824Z,-0.60
2023-02-26T01:19:45.390Z,-0.70
2023-02-26T01:21:24.429Z,-0.60
2023-02-26T01:23:04.162Z,-0.60
2023-02-26T01:24:38.786Z,-0.60
2023-02-26T01:26:16.983Z,-0.50
2023-02-26T01:27:50.398Z,-0.50
2023-02-26T01:29:24.048Z,-0.50
2023-02-26T01:31:02.499Z,-0.50
2023-02-26T01:32:45.306Z,-0.50
2023-02-26T01:34:23.473Z,-0.50
2023-02-26T01:36:02.880Z,-0.50
2023-02-26T01:37:46.857Z,-0.60
2023-02-26T01:39:30.184Z,-0.50
2023-02-26T01:41:24.849Z,-0.90
2023-02-26T01:43:04.563Z,-0.60
2023-02-26T01:44:43.665Z,-0.60
2023-02-26T01:46:23.072Z,-0.50
2023-02-26T01:48:04.447Z,-0.50
2023-02-26T01:49:38.309Z,-0.50
2023-02-26T01:51:10.366Z,-0.60
2023-02-26T01:53:21.655Z,-0.50
2023-02-26T01:54:56.119Z,-0.70
2023-02-26T01:56:29.285Z,-0.50
2023-02-26T01:58:03.543Z,-0.50
2023-02-26T01:59:39.944Z,-0.50
2023-02-26T02:01:13.142Z,-0.50
2023-02-26T02:02:45.639Z,-0.50
2023-02-26T02:04:20.416Z,-0.50
2023-02-26T02:05:57.603Z,-0.40
2023-02-26T02:07:31.442Z,-0.40
2023-02-26T02:09:06.868Z,-0.50
2023-02-26T02:10:45.129Z,-0.50
2023-02-26T02:12:33.600Z,-0.50
2023-02-26T02:14:17.034Z,-0.50
2023-02-26T02:16:01.018Z,-0.50
2023-02-26T02:17:44.054Z,-0.40
2023-02-26T02:19:56.501Z,-0.50
2023-02-26T02:21:52.472Z,-0.50
2023-02-26T02:23:33.494Z,-0.50
2023-02-26T02:25:20.631Z,-0.50
2023-02-26T02:27:04.494Z,-0.40
2023-02-26T02:28:45.489Z,-0.40
2023-02-26T02:30:30.742Z,-0.40
2023-02-26T02:32:07.621Z,-0.40
2023-02-26T02:33:45.899Z,-0.40
2023-02-26T02:35:22.870Z,-0.30
2023-02-26T02:37:00.786Z,-0.30
2023-02-26T02:38:37.908Z,-0.40
2023-02-26T02:40:15.755Z,-0.50
2023-02-26T02:41:52.179Z,-0.40
2023-02-26T02:43:29.747Z,-0.40
2023-02-26T02:45:07.918Z,-0.30
2023-02-26T02:46:43.402Z,-0.30
2023-02-26T02:48:25.354Z,-0.40
2023-02-26T02:50:05.408Z,-0.50
2023-02-26T02:51:43.989Z,-0.30
2023-02-26T02:53:21.314Z,-0.40
2023-02-26T02:55:00.079Z,-0.30
2023-02-26T02:56:36.988Z,-0.20
2023-02-26T02:58:14.614Z,-0.30
2023-02-26T02:59:49.500Z,-0.50
2023-02-26T03:01:26.399Z,-0.30
2023-02-26T03:03:05.797Z,-0.20
2023-02-26T03:04:41.033Z,-0.20
2023-02-26T03:06:14.659Z,-0.30
2023-02-26T03:07:50.040Z,-0.20
2023-02-26T03:09:23.141Z,-0.30
2023-02-26T03:10:55.642Z,-0.30
2023-02-26T03:12:33.137Z,-0.40
2023-02-26T03:14:10.155Z,-0.30
2023-02-26T03:16:01.213Z,-0.30
2023-02-26T03:17:41.896Z,-0.30
2023-02-26T03:19:18.524Z,-0.40
2023-02-26T03:21:03.318Z,-0.40
2023-02-26T03:22:44.388Z,-0.30
2023-02-26T03:24:33.328Z,-0.20
2023-02-26T03:26:13.339Z,-0.30
2023-02-26T03:27:51.474Z,-0.30
2023-02-26T03:29:34.575Z,-0.30
2023-02-26T03:31:14.498Z,-0.20
2023-02-26T03:32:56.643Z,-0.20
2023-02-26T03:34:39.971Z,-0.20
2023-02-26T03:36:22.316Z,-0.20
2023-02-26T03:38:10.608Z,-0.20
2023-02-26T03:39:46.862Z,-0.30
2023-02-26T03:41:26.540Z,-0.30
2023-02-26T03:43:04.528Z,-0.20
2023-02-26T03:44:40.577Z,-0.20
2023-02-26T03:46:18.143Z,-0.20
2023-02-26T03:47:53.764Z,-0.30
2023-02-26T03:49:34.084Z,-0.20
2023-02-26T03:51:11.924Z,-0.30
2023-02-26T03:53:11.611Z,-0.20
2023-02-26T03:54:56.282Z,-0.20
2023-02-26T03:56:50.742Z,-0.20
2023-02-26T03:58:50.442Z,-0.20
2023-02-26T04:00:32.368Z,-0.30
2023-02-26T04:02:12.702Z,-0.20
2023-02-26T04:03:50.576Z,-0.20
2023-02-26T04:05:27.465Z,-0.30
2023-02-26T04:07:01.608Z,-0.20
2023-02-26T04:08:35.718Z,-0.20
2023-02-26T04:10:10.773Z,-0.30
2023-02-26T04:11:46.170Z,-0.20
2023-02-26T04:13:19.459Z,-0.20
2023-02-26T04:14:52.986Z,-0.30
2023-02-26T04:16:26.419Z,-0.20
2023-02-26T04:18:00.128Z,-0.30
2023-02-26T04:19:34.140Z,-0.30
2023-02-26T04:21:07.849Z,-0.20
2023-02-26T04:22:40.900Z,-0.30
2023-02-26T04:24:15.339Z,-0.30
2023-02-26T04:25:50.075Z,-0.30
2023-02-26T04:27:24.420Z,-0.30
2023-02-26T04:28:57.664Z,-0.30
2023-02-26T04:30:30.225Z,-0.30
2023-02-26T04:32:04.343Z,-0.30
2023-02-26T04:33:37.831Z,-0.30
2023-02-26T04:35:11.232Z,-0.30
2023-02-26T04:36:44.335Z,-0.30
2023-02-26T04:38:16.438Z,-0.30
2023-02-26T04:39:51.435Z,-0.30
2023-02-26T04:41:24.956Z,-0.30
2023-02-26T04:42:58.575Z,-0.30
2023-02-26T04:44:33.781Z,-0.30
2023-02-26T04:46:08.040Z,-0.30
2023-02-26T04:47:42.632Z,-0.20
2023-02-26T04:49:16.005Z,-0.20
2023-02-26T04:50:50.852Z,-0.30
2023-02-26T04:52:23.089Z,-0.30
2023-02-26T04:53:56.312Z,-0.20
2023-02-26T04:55:30.284Z,-0.30
2023-02-26T04:57:03.357Z,-0.30
2023-02-26T04:58:37.060Z,-0.20
2023-02-26T05:00:15.432Z,-0.20
2023-02-26T05:01:48.634Z,-0.20
2023-02-26T05:03:21.756Z,-0.20
2023-02-26T05:04:53.858Z,-0.20
2023-02-26T05:06:27.294Z,-0.20
2023-02-26T05:08:00.930Z,-0.20
2023-02-26T05:09:33.202Z,-0.10
2023-02-26T05:11:08.143Z,-0.10
2023-02-26T05:12:40.200Z,-0.20
2023-02-26T05:14:13.264Z,-0.10
2023-02-26T05:15:47.503Z,-0.20
2023-02-26T05:17:20.672Z,-0.20
2023-02-26T05:18:53.901Z,-0.10
2023-02-26T05:20:27.035Z,-0.20
2023-02-26T05:21:59.099Z,-0.20
2023-02-26T05:23:32.222Z,-0.10
2023-02-26T05:25:06.236Z,-0.20
2023-02-26T05:26:40.907Z,-0.20
2023-02-26T05:28:14.039Z,-0.20
2023-02-26T05:29:46.318Z,-0.30
2023-02-26T05:31:20.870Z,-0.20
2023-02-26T05:32:54.749Z,-0.20
2023-02-26T05:34:27.870Z,-0.20
2023-02-26T05:36:01.120Z,-0.10
2023-02-26T05:37:34.171Z,-0.20
2023-02-26T05:39:07.226Z,-0.20
2023-02-26T05:40:40.307Z,0.10
2023-02-26T05:42:14.794Z,-0.20
2023-02-26T05:43:47.847Z,-0.10
2023-02-26T05:45:20.939Z,-0.20
2023-02-26T05:46:54.236Z,-0.20
2023-02-26T05:48:27.407Z,-0.10
2023-02-26T05:50:00.475Z,-0.50
2023-02-26T05:51:33.542Z,-0.20
2023-02-26T05:53:06.609Z,-0.20
2023-02-26T05:54:39.706Z,-0.20
2023-02-26T05:56:12.864Z,-0.20
2023-02-26T05:57:47.298Z,-0.20
2023-02-26T05:59:20.398Z,-0.20
2023-02-26T06:00:52.781Z,-0.20
2023-02-26T06:02:25.835Z,-0.20
2023-02-26T06:03:57.947Z,-0.20
2023-02-26T06:05:32.175Z,-0.20
2023-02-26T06:07:05.472Z,-0.20
2023-02-26T06:08:38.430Z,-0.20
2023-02-26T06:10:13.199Z,-0.20
2023-02-26T06:11:46.237Z,-0.20
2023-02-26T06:13:21.123Z,-0.20
2023-02-26T06:14:54.179Z,-0.20
2023-02-26T06:16:28.237Z,-0.20
2023-02-26T06:18:01.604Z,-0.20
2023-02-26T06:19:35.004Z,-0.20
2023-02-26T06:21:07.166Z,-0.20
2023-02-26T06:22:40.403Z,-0.20
2023-02-26T06:24:13.484Z,-0.20
2023-02-26T06:25:46.769Z,-0.20
2023-02-26T06:27:19.829Z,-0.20
2023-02-26T06:28:54.387Z,-0.20
2023-02-26T06:30:27.517Z,-0.20
2023-02-26T06:32:00.738Z,-0.20
2023-02-26T06:33:33.881Z,-0.20
2023-02-26T06:35:08.410Z,-0.20
2023-02-26T06:36:40.655Z,-0.20
2023-02-26T06:38:14.038Z,-0.20
2023-02-26T06:39:47.095Z,-0.10
2023-02-26T06:41:20.252Z,0.00
2023-02-26T06:42:53.377Z,0.00
2023-02-26T06:44:28.122Z,-0.10
2023-02-26T06:46:01.795Z,-0.10
2023-02-26T06:47:35.110Z,-0.10
2023-02-26T06:49:08.562Z,-0.10
2023-02-26T06:50:41.780Z,-0.10
2023-02-26T06:52:14.848Z,-0.10
2023-02-26T06:53:47.918Z,-0.10
2023-02-26T06:55:21.827Z,-0.10
2023-02-26T06:56:57.751Z,-0.20
2023-02-26T06:58:30.923Z,0.00
2023-02-26T07:00:07.465Z,0.00
2023-02-26T07:01:40.580Z,0.00
2023-02-26T07:03:17.489Z,0.00
2023-02-26T07:04:50.781Z,0.10
2023-02-26T07:06:38.334Z,0.00
2023-02-26T07:08:11.592Z,0.10
2023-02-26T07:09:45.822Z,0.10
2023-02-26T07:11:19.161Z,0.10
2023-02-26T07:12:52.564Z,0.10
2023-02-26T07:14:25.623Z,0.10
2023-02-26T07:16:00.125Z,0.10
2023-02-26T07:17:33.758Z,0.00
2023-02-26T07:19:06.947Z,0.10
2023-02-26T07:20:40.237Z,0.20
2023-02-26T07:22:13.624Z,0.10
2023-02-26T07:23:46.802Z,0.20
2023-02-26T07:25:20.259Z,0.20
2023-02-26T07:26:53.658Z,0.20
2023-02-26T07:28:27.037Z,0.30
2023-02-26T07:29:59.401Z,0.30
2023-02-26T07:31:34.328Z,0.20
2023-02-26T07:33:07.486Z,0.20
2023-02-26T07:34:40.762Z,0.30
2023-02-26T07:36:13.890Z,0.30
2023-02-26T07:37:47.010Z,0.20
2023-02-26T07:39:20.111Z,0.30
2023-02-26T07:40:56.439Z,0.30
2023-02-26T07:42:29.516Z,0.30
2023-02-26T07:44:02.639Z,0.20
2023-02-26T07:45:36.177Z,0.30
2023-02-26T07:47:12.172Z,0.40
2023-02-26T07:48:45.307Z,0.20
2023-02-26T07:50:18.838Z,0.20
2023-02-26T07:51:51.985Z,0.30
2023-02-26T07:53:25.143Z,0.30
2023-02-26T07:54:58.193Z,0.30
2023-02-26T07:56:31.797Z,0.40
2023-02-26T07:58:04.872Z,0.40
2023-02-26T07:59:38.029Z,0.30
2023-02-26T08:01:11.187Z,0.30
2023-02-26T08:02:45.801Z,0.30
2023-02-26T08:04:19.114Z,0.50
2023-02-26T08:05:52.224Z,0.40
2023-02-26T08:07:25.472Z,0.40
2023-02-26T08:08:58.643Z,0.40
2023-02-26T08:10:31.975Z,0.40
2023-02-26T08:12:05.375Z,0.40
2023-02-26T08:13:38.482Z,0.40
2023-02-26T08:15:14.293Z,0.40
2023-02-26T08:16:47.358Z,0.50
2023-02-26T08:18:21.929Z,0.50
2023-02-26T08:19:55.047Z,0.50
2023-02-26T08:21:28.155Z,0.50
2023-02-26T08:23:01.346Z,0.50
2023-02-26T08:24:34.474Z,0.60
2023-02-26T08:26:09.646Z,0.50
2023-02-26T08:27:42.820Z,0.50
2023-02-26T08:29:16.179Z,0.40
2023-02-26T08:30:49.529Z,0.50
2023-02-26T08:32:23.939Z,0.40
2023-02-26T08:33:58.742Z,0.40
2023-02-26T08:35:31.968Z,0.40
2023-02-26T08:37:05.298Z,0.40
2023-02-26T08:38:38.367Z,0.40
2023-02-26T08:40:15.100Z,0.50
2023-02-26T08:41:48.336Z,0.50
2023-02-26T08:43:21.977Z,0.50
2023-02-26T08:44:55.173Z,0.60
2023-02-26T08:46:28.984Z,0.60
2023-02-26T08:48:02.369Z,0.60
2023-02-26T08:49:36.089Z,0.60
2023-02-26T08:51:09.151Z,0.60
2023-02-26T08:52:42.490Z,0.60
2023-02-26T08:54:15.771Z,0.40
2023-02-26T08:55:49.697Z,0.20
2023-02-26T08:57:22.762Z,0.30
2023-02-26T08:58:56.106Z,0.20
2023-02-26T09:00:29.677Z,0.30
2023-02-26T09:02:03.071Z,0.30
2023-02-26T09:03:36.236Z,0.30
2023-02-26T09:05:12.200Z,0.40
2023-02-26T09:06:45.458Z,0.30
2023-02-26T09:08:20.554Z,0.40
2023-02-26T09:09:53.651Z,0.40
2023-02-26T09:11:27.155Z,0.40
2023-02-26T09:13:00.651Z,0.30
2023-02-26T09:14:33.746Z,0.40
2023-02-26T09:16:08.087Z,0.40
2023-02-26T09:17:40.324Z,0.50
2023-02-26T09:19:13.437Z,0.40
2023-02-26T09:20:47.932Z,0.40
2023-02-26T09:22:20.983Z,0.40
2023-02-26T09:23:54.083Z,0.50
2023-02-26T09:25:27.217Z,0.50
2023-02-26T09:27:00.742Z,0.50
2023-02-26T09:28:33.867Z,0.50
2023-02-26T09:30:08.313Z,0.60
2023-02-26T09:31:41.706Z,0.50
2023-02-26T09:33:14.884Z,0.50
2023-02-26T09:34:47.970Z,0.60
2023-02-26T09:36:22.414Z,0.60
2023-02-26T09:37:55.546Z,0.70
2023-02-26T09:39:28.622Z,0.80
2023-02-26T09:41:04.368Z,0.90
2023-02-26T09:42:54.030Z,0.90
2023-02-26T09:44:29.472Z,1.00
2023-02-26T09:46:07.229Z,1.00
2023-02-26T09:47:46.690Z,1.10
2023-02-26T09:49:29.782Z,1.10
2023-02-26T09:51:03.061Z,1.30
2023-02-26T09:52:41.429Z,1.30
2023-02-26T09:54:19.416Z,1.30
2023-02-26T09:55:55.852Z,1.30
2023-02-26T09:57:32.624Z,1.40
2023-02-26T09:59:05.725Z,1.50
2023-02-26T10:00:45.390Z,1.50
2023-02-26T10:02:25.239Z,0.90
2023-02-26T10:04:11.161Z,1.20
2023-02-26T10:05:54.951Z,1.30
2023-02-26T10:07:37.475Z,1.30
2023-02-26T10:09:32.346Z,1.40
2023-02-26T10:11:12.960Z,1.50
2023-02-26T10:12:47.586Z,1.50
2023-02-26T10:14:25.768Z,1.50
2023-02-26T10:16:12.720Z,1.40
2023-02-26T10:18:01.261Z,1.60
2023-02-26T10:19:39.494Z,1.60
2023-02-26T10:21:17.574Z,1.70
2023-02-26T10:22:59.252Z,1.80
2023-02-26T10:24:41.476Z,1.80
2023-02-26T10:26:20.707Z,1.50
2023-02-26T10:27:59.409Z,1.50
2023-02-26T10:29:38.854Z,1.50
2023-02-26T10:31:22.614Z,1.60
2023-02-26T10:33:04.588Z,1.50
2023-02-26T10:34:43.234Z,1.50
2023-02-26T10:36:24.770Z,1.40
2023-02-26T10:37:59.937Z,1.40
2023-02-26T10:39:38.272Z,1.50
2023-02-26T10:41:15.805Z,1.50
2023-02-26T10:42:52.118Z,1.60
2023-02-26T10:44:30.389Z,1.50
2023-02-26T10:46:17.350Z,1.50
2023-02-26T10:47:59.349Z,1.60
2023-02-26T10:49:48.187Z,1.60
2023-02-26T10:51:26.028Z,1.70
2023-02-26T10:52:59.762Z,2.00
2023-02-26T10:54:37.354Z,2.80
2023-02-26T10:56:15.583Z,2.90
2023-02-26T10:57:53.235Z,2.40
2023-02-26T10:59:27.363Z,2.30
2023-02-26T11:01:00.835Z,2.50
2023-02-26T11:02:40.298Z,2.20
2023-02-26T11:04:18.105Z,2.00
2023-02-26T11:05:51.269Z,1.90
2023-02-26T11:07:25.375Z,1.90
2023-02-26T11:09:00.830Z,2.00
2023-02-26T11:10:43.077Z,2.30
2023-02-26T11:12:16.973Z,2.10
2023-02-26T11:13:50.568Z,1.90
2023-02-26T11:15:26.642Z,1.80
2023-02-26T11:17:02.798Z,1.70
2023-02-26T11:18:41.444Z,1.70
2023-02-26T11:20:20.656Z,1.90
2023-02-26T11:21:54.004Z,2.00
2023-02-26T11:23:31.223Z,1.90
2023-02-26T11:25:05.551Z,1.80
2023-02-26T11:26:43.781Z,1.80
2023-02-26T11:28:23.435Z,1.70
2023-02-26T11:29:59.376Z,1.60
2023-02-26T11:31:34.150Z,1.90
2023-02-26T11:33:17.888Z,1.80
2023-02-26T11:34:52.966Z,2.30
2023-02-26T11:36:29.583Z,2.20
2023-02-26T11:38:04.283Z,2.30
2023-02-26T11:39:40.097Z,2.40
2023-02-26T11:41:14.942Z,2.90
2023-02-26T11:42:54.301Z,2.80
2023-02-26T11:44:36.804Z,2.80
2023-02-26T11:46:11.897Z,2.80
2023-02-26T11:47:45.708Z,2.70
2023-02-26T11:49:22.039Z,2.50
2023-02-26T11:51:00.160Z,2.30
2023-02-26T11:52:36.379Z,2.40
2023-02-26T11:54:22.486Z,2.70
2023-02-26T11:56:02.291Z,2.30
2023-02-26T11:57:37.277Z,2.30
2023-02-26T11:59:20.599Z,2.30
2023-02-26T12:00:54.826Z,2.40
2023-02-26T12:02:34.902Z,2.20
2023-02-26T12:04:11.892Z,2.20
2023-02-26T12:05:45.464Z,2.20
2023-02-26T12:07:19.766Z,2.40
2023-02-26T12:08:53.965Z,2.30
2023-02-26T12:10:34.978Z,2.40
2023-02-26T12:12:23.471Z,2.40
2023-02-26T12:14:08.634Z,2.30
2023-02-26T12:15:52.818Z,2.10
2023-02-26T12:17:39.120Z,2.20
2023-02-26T12:19:20.571Z,2.10
2023-02-26T12:21:07.099Z,2.10
2023-02-26T12:22:54.933Z,2.10
2023-02-26T12:24:50.265Z,2.10
2023-02-26T12:26:29.481Z,2.00
2023-02-26T12:28:36.802Z,2.00
2023-02-26T12:30:38.085Z,2.00
2023-02-26T12:32:32.875Z,2.10
2023-02-26T12:34:30.273Z,2.20
2023-02-26T12:36:17.687Z,2.20
2023-02-26T12:38:02.354Z,2.50
2023-02-26T12:39:49.430Z,2.60
2023-02-26T12:41:33.465Z,2.40
2023-02-26T12:43:11.570Z,2.50
2023-02-26T12:45:05.070Z,2.50
2023-02-26T12:46:56.795Z,2.60
2023-02-26T12:48:54.531Z,2.40
2023-02-26T12:50:42.473Z,2.60
2023-02-26T12:52:38.364Z,2.60
2023-02-26T12:54:36.673Z,2.50
2023-02-26T12:56:32.781Z,2.60
2023-02-26T12:58:40.008Z,2.60
2023-02-26T13:00:31.513Z,2.70
2023-02-26T13:02:29.875Z,2.80
2023-02-26T13:04:20.980Z,2.20
2023-02-26T13:06:35.406Z,2.10
2023-02-26T13:08:17.757Z,2.10
2023-02-26T13:09:59.989Z,2.20
2023-02-26T13:11:47.434Z,2.10
2023-02-26T13:13:52.377Z,2.00
2023-02-26T13:15:41.500Z,1.90
2023-02-26T13:17:23.696Z,1.90
2023-02-26T13:19:04.871Z,2.00
2023-02-26T13:20:43.251Z,2.00
2023-02-26T13:22:21.543Z,1.90
2023-02-26T13:23:58.064Z,1.90
2023-02-26T13:25:39.353Z,1.90
2023-02-26T13:27:15.552Z,2.00
2023-02-26T13:28:54.905Z,2.10
2023-02-26T13:30:32.232Z,2.20
2023-02-26T13:32:13.670Z,2.30
2023-02-26T13:33:49.555Z,2.10
2023-02-26T13:35:29.779Z,2.10
2023-02-26T13:37:04.938Z,2.10
2023-02-26T13:38:47.547Z,2.10
2023-02-26T13:40:56.220Z,2.20
2023-02-26T13:42:37.358Z,2.10
2023-02-26T13:44:26.430Z,2.30
2023-02-26T13:46:12.294Z,2.30
2023-02-26T13:47:59.748Z,2.20
2023-02-26T13:49:38.766Z,2.30
2023-02-26T13:51:20.179Z,2.30
2023-02-26T13:52:57.354Z,2.30
2023-02-26T13:54:36.443Z,2.30
2023-02-26T13:56:15.830Z,2.40
2023-02-26T13:57:52.727Z,2.30
2023-02-26T13:59:31.901Z,2.20
2023-02-26T14:01:12.209Z,2.10
2023-02-26T14:02:52.385Z,1.30
2023-02-26T14:04:27.928Z,1.00
2023-02-26T14:06:24.244Z,1.00
2023-02-26T14:08:29.430Z,0.30
2023-02-26T14:10:05.280Z,0.30
2023-02-26T14:11:47.557Z,0.00
2023-02-26T14:13:22.710Z,-0.10
2023-02-26T14:15:28.026Z,-0.10
2023-02-26T14:17:30.390Z,0.00
2023-02-26T14:19:06.031Z,0.00
2023-02-26T14:20:40.636Z,0.10
2023-02-26T14:22:23.641Z,0.10
2023-02-26T14:24:01.686Z,0.20
2023-02-26T14:25:38.611Z,0.30
2023-02-26T14:27:34.161Z,0.10
2023-02-26T14:29:16.728Z,0.20
2023-02-26T14:30:53.034Z,0.40
2023-02-26T14:32:31.669Z,0.80
2023-02-26T14:34:16.255Z,1.10
2023-02-26T14:35:52.384Z,1.60
2023-02-26T14:37:28.283Z,2.10
2023-02-26T14:39:05.777Z,2.60
2023-02-26T14:40:43.623Z,2.70
2023-02-26T14:42:21.182Z,2.80
2023-02-26T14:44:01.223Z,3.20
2023-02-26T14:45:37.376Z,3.50
2023-02-26T14:47:11.930Z,3.60
2023-02-26T14:48:45.280Z,3.50
2023-02-26T14:50:20.945Z,2.90
2023-02-26T14:52:20.095Z,3.10
2023-02-26T14:54:27.671Z,3.40
2023-02-26T14:56:12.101Z,3.90
2023-02-26T14:57:55.933Z,4.10
2023-02-26T14:59:54.627Z,3.70
2023-02-26T15:01:46.282Z,3.00
2023-02-26T15:03:50.770Z,2.70
2023-02-26T15:05:44.739Z,2.50
2023-02-26T15:07:41.108Z,2.40
2023-02-26T15:09:21.510Z,2.20
2023-02-26T15:11:06.958Z,2.00
2023-02-26T15:12:53.102Z,1.80
2023-02-26T15:14:59.464Z,1.40
2023-02-26T15:16:47.302Z,1.20
2023-02-26T15:18:36.912Z,0.40
2023-02-26T15:20:21.428Z,0.20
2023-02-26T15:22:09.488Z,0.10
2023-02-26T15:23:45.720Z,0.10
2023-02-26T15:25:29.706Z,0.10
2023-02-26T15:27:06.414Z,0.10
2023-02-26T15:28:42.205Z,0.10
2023-02-26T15:30:17.056Z,0.10
2023-02-26T15:31:55.465Z,0.10
2023-02-26T15:33:29.792Z,0.20
2023-02-26T15:35:08.930Z,0.20
2023-02-26T15:36:45.917Z,0.10
2023-02-26T15:38:19.275Z,0.20
2023-02-26T15:39:53.067Z,0.20
2023-02-26T15:41:30.054Z,0.20
2023-02-26T15:43:04.067Z,0.10
2023-02-26T15:44:40.499Z,0.20
2023-02-26T15:46:16.707Z,0.20
2023-02-26T15:47:55.169Z,0.30
2023-02-26T15:49:30.951Z,0.20
2023-02-26T15:51:07.162Z,0.40
2023-02-26T15:52:41.421Z,0.30
2023-02-26T15:54:19.020Z,0.30
2023-02-26T15:55:54.432Z,0.30
2023-02-26T15:57:30.799Z,0.40
2023-02-26T15:59:08.804Z,0.40
2023-02-26T16:00:42.737Z,0.40
2023-02-26T16:02:17.669Z,0.30
2023-02-26T16:03:53.150Z,0.40
2023-02-26T16:05:27.473Z,0.30
2023-02-26T16:07:01.509Z,0.30
2023-02-26T16:08:34.836Z,0.30
2023-02-26T16:10:20.939Z,0.30
2023-02-26T16:11:56.506Z,0.20
2023-02-26T16:13:33.418Z,0.20
2023-02-26T16:15:13.033Z,0.20
2023-02-26T16:16:49.848Z,0.20
2023-02-26T16:18:26.281Z,0.10
2023-02-26T16:20:03.274Z,0.10
2023-02-26T16:21:39.644Z,0.20
2023-02-26T16:23:16.529Z,0.20
2023-02-26T16:24:54.432Z,0.20
2023-02-26T16:26:31.561Z,0.20
2023-02-26T16:28:07.929Z,0.40
2023-02-26T16:29:51.894Z,0.30
2023-02-26T16:31:27.432Z,0.40
2023-02-26T16:33:01.204Z,0.40
2023-02-26T16:34:38.591Z,0.40
2023-02-26T16:36:15.945Z,0.50
2023-02-26T16:37:50.027Z,0.50
2023-02-26T16:39:25.782Z,0.50
2023-02-26T16:41:00.737Z,0.50
2023-02-26T16:42:44.818Z,0.50
2023-02-26T16:44:47.658Z,0.50
2023-02-26T16:46:25.188Z,0.50
2023-02-26T16:47:59.784Z,0.50
2023-02-26T16:49:35.950Z,0.60
2023-02-26T16:51:12.500Z,0.50
2023-02-26T16:52:49.414Z,0.50
2023-02-26T16:54:27.020Z,0.50
2023-02-26T16:56:00.731Z,0.50
2023-02-26T16:57:38.019Z,0.40
2023-02-26T16:59:17.217Z,0.40
2023-02-26T17:00:58.127Z,0.40
2023-02-26T17:02:34.398Z,0.40
2023-02-26T17:04:08.807Z,0.50
2023-02-26T17:05:45.119Z,0.50
2023-02-26T17:07:25.264Z,0.40
2023-02-26T17:09:00.510Z,0.40
2023-02-26T17:10:35.798Z,0.40
2023-02-26T17:12:14.918Z,0.40
2023-02-26T17:14:03.681Z,0.40
2023-02-26T17:15:39.047Z,0.40
2023-02-26T17:17:13.686Z,0.30
2023-02-26T17:18:46.807Z,0.30
2023-02-26T17:20:20.020Z,0.20
2023-02-26T17:21:57.552Z,0.10
2023-02-26T17:23:32.579Z,0.10
2023-02-26T17:25:06.559Z,0.10
2023-02-26T17:26:39.833Z,0.10
2023-02-26T17:28:17.331Z,0.10
2023-02-26T17:29:52.151Z,0.10
2023-02-26T17:31:25.530Z,0.20
2023-02-26T17:33:00.764Z,0.20
2023-02-26T17:34:33.995Z,0.20
2023-02-26T17:36:09.159Z,0.10
2023-02-26T17:37:43.136Z,0.20
2023-02-26T17:39:16.790Z,0.20
2023-02-26T17:40:54.182Z,0.20
2023-02-26T17:42:27.726Z,0.20
2023-02-26T17:44:00.799Z,0.20
2023-02-26T17:45:35.117Z,0.20
2023-02-26T17:47:10.880Z,0.20
2023-02-26T17:48:45.361Z,0.20
2023-02-26T17:50:30.417Z,0.30
2023-02-26T17:52:03.769Z,0.30
2023-02-26T17:53:40.957Z,0.20
2023-02-26T17:55:14.563Z,0.20
2023-02-26T17:56:49.641Z,0.20
2023-02-26T17:58:28.045Z,0.20
2023-02-26T18:00:01.333Z,0.30
2023-02-26T18:01:34.716Z,0.10
2023-02-26T18:03:08.914Z,0.10
2023-02-26T18:04:43.449Z,0.10
2023-02-26T18:06:17.560Z,0.00
2023-02-26T18:07:50.625Z,-0.10
2023-02-26T18:09:23.980Z,-0.10
2023-02-26T18:10:57.883Z,-0.20
2023-02-26T18:12:31.084Z,-0.30
2023-02-26T18:14:05.046Z,-0.30
2023-02-26T18:15:38.298Z,-0.30
2023-02-26T18:17:14.506Z,-0.40
2023-02-26T18:18:48.100Z,-0.50
2023-02-26T18:20:23.611Z,-0.50
2023-02-26T18:21:56.873Z,-0.60
2023-02-26T18:23:29.963Z,-0.50
2023-02-26T18:25:03.126Z,-0.40
2023-02-26T18:26:36.187Z,-0.40
2023-02-26T18:28:14.434Z,-0.50
2023-02-26T18:29:47.988Z,-0.30
2023-02-26T18:31:21.315Z,-0.20
2023-02-26T18:32:54.556Z,-0.20
2023-02-26T18:34:28.065Z,-0.10
2023-02-26T18:36:02.550Z,0.00
2023-02-26T18:37:35.673Z,0.00
2023-02-26T18:39:13.551Z,0.00
2023-02-26T18:40:47.676Z,0.00
2023-02-26T18:42:23.688Z,-0.10
2023-02-26T18:43:56.783Z,-0.30
2023-02-26T18:45:29.963Z,-0.20
2023-02-26T18:47:03.000Z,-0.20
2023-02-26T18:48:36.742Z,-0.20
2023-02-26T18:50:13.915Z,-0.20
2023-02-26T18:51:48.700Z,-0.20
2023-02-26T18:53:23.506Z,-0.20
2023-02-26T18:54:56.726Z,-0.20
2023-02-26T18:56:29.868Z,-0.40
2023-02-26T18:58:03.648Z,-0.40
2023-02-26T18:59:37.262Z,-0.40
2023-02-26T19:01:10.462Z,-0.50
2023-02-26T19:02:47.165Z,-0.50
2023-02-26T19:04:20.554Z,-0.50
2023-02-26T19:06:00.453Z,-0.50
2023-02-26T19:07:34.952Z,-0.50
2023-02-26T19:09:08.443Z,-0.50
2023-02-26T19:10:45.539Z,-0.50
2023-02-26T19:12:20.434Z,-0.40
2023-02-26T19:13:53.498Z,-0.30
2023-02-26T19:15:26.927Z,-0.20
2023-02-26T19:17:00.352Z,-0.10
2023-02-26T19:18:33.505Z,-0.10
2023-02-26T19:20:07.965Z,0.10
2023-02-26T19:21:41.488Z,0.10
2023-02-26T19:23:15.973Z,0.10
2023-02-26T19:24:49.039Z,0.10
2023-02-26T19:26:22.787Z,0.10
2023-02-26T19:27:57.041Z,0.10
2023-02-26T19:29:30.280Z,0.10
2023-02-26T19:31:03.484Z,0.00
2023-02-26T19:32:37.161Z,0.00
2023-02-26T19:34:10.603Z,0.00
2023-02-26T19:35:43.646Z,0.00
2023-02-26T19:37:16.679Z,0.00
2023-02-26T19:38:51.516Z,0.00
2023-02-26T19:40:25.041Z,0.00
2023-02-26T19:41:58.654Z,0.00
2023-02-26T19:43:31.681Z,0.00
2023-02-26T19:45:05.727Z,0.00
2023-02-26T19:46:38.964Z,0.00
2023-02-26T19:48:12.127Z,0.00
2023-02-26T19:49:45.186Z,0.00
2023-02-26T19:51:18.883Z,0.00
2023-02-26T19:52:52.066Z,0.00
2023-02-26T19:54:26.606Z,0.00
2023-02-26T19:55:59.635Z,0.00
2023-02-26T19:57:32.798Z,0.00
2023-02-26T19:59:06.032Z,-0.10
2023-02-26T20:00:39.350Z,-0.10
2023-02-26T20:02:12.560Z,-0.10
2023-02-26T20:03:48.004Z,0.10
2023-02-26T20:05:22.096Z,-0.10
2023-02-26T20:06:55.247Z,0.00
2023-02-26T20:08:29.698Z,-0.10
2023-02-26T20:10:04.532Z,-0.10
2023-02-26T20:11:38.311Z,-0.20
2023-02-26T20:13:13.034Z,-0.10
2023-02-26T20:14:46.094Z,-0.10
2023-02-26T20:16:19.194Z,-0.20
2023-02-26T20:17:52.266Z,-0.20
2023-02-26T20:19:25.630Z,-0.20
2023-02-26T20:20:59.155Z,-0.10
2023-02-26T20:22:33.013Z,-0.10
2023-02-26T20:24:06.833Z,-0.10
2023-02-26T20:25:43.745Z,-0.10
2023-02-26T20:27:16.855Z,-0.10
2023-02-26T20:28:49.963Z,-0.10
2023-02-26T20:30:23.388Z,-0.10
2023-02-26T20:31:57.976Z,-0.10
2023-02-26T20:33:33.120Z,-0.10
2023-02-26T20:35:07.309Z,-0.10
2023-02-26T20:36:41.648Z,-0.20
2023-02-26T20:38:15.210Z,-0.20
2023-02-26T20:39:48.963Z,-0.20
2023-02-26T20:41:23.520Z,-0.20
2023-02-26T20:42:56.612Z,-0.20
2023-02-26T20:44:29.662Z,-0.20
2023-02-26T20:46:02.971Z,-0.10
2023-02-26T20:47:36.932Z,-0.10
2023-02-26T20:49:11.481Z,-0.10
2023-02-26T20:50:44.753Z,-0.10
2023-02-26T20:52:17.869Z,-0.10
2023-02-26T20:53:51.503Z,-0.10
2023-02-26T20:55:24.585Z,-0.10
2023-02-26T20:56:59.012Z,-0.20
2023-02-26T20:58:32.651Z,-0.30
2023-02-26T21:00:11.081Z,-0.20
2023-02-26T21:01:44.206Z,-0.20
2023-02-26T21:03:17.316Z,-0.30
2023-02-26T21:04:50.432Z,-0.20
2023-02-26T21:06:23.630Z,-0.30
2023-02-26T21:07:56.695Z,-0.30
2023-02-26T21:09:29.959Z,-0.20
2023-02-26T21:11:03.023Z,-0.20
2023-02-26T21:12:38.073Z,-0.20
2023-02-26T21:14:11.655Z,-0.20
2023-02-26T21:15:44.950Z,-0.20
2023-02-26T21:17:18.161Z,-0.20